sensor_id;sensor_type;location;lat;lon;timestamp;P1;durP1;ratioP1;P2;durP2;ratioP2
16665;SDS011;8446;50.998;6.250;2023-04-21T00:00:49;25.87;;;16.23;;
16665;SDS011;8446;50.998;6.250;2023-04-21T00:03:15;22.83;;;13.07;;
16665;SDS011;8446;50.998;6.250;2023-04-21T00:05:43;20.20;;;13.47;;
16665;SDS011;8446;50.998;6.250;2023-04-21T00:08:10;27.70;;;15.30;;
16665;SDS011;8446;50.998;6.250;2023-04-21T00:10:37;24.70;;;15.60;;
16665;SDS011;8446;50.998;6.250;2023-04-21T00:13:05;30.93;;;16.10;;
16665;SDS011;8446;50.998;6.250;2023-04-21T00:15:32;25.23;;;16.10;;
16665;SDS011;8446;50.998;6.250;2023-04-21T00:17:59;27.03;;;16.10;;
16665;SDS011;8446;50.998;6.250;2023-04-21T00:20:27;30.00;;;16.67;;
16665;SDS011;8446;50.998;6.250;2023-04-21T00:22:55;27.17;;;15.27;;
16665;SDS011;8446;50.998;6.250;2023-04-21T00:25:22;27.60;;;16.00;;
16665;SDS011;8446;50.998;6.250;2023-04-21T00:27:50;27.90;;;17.00;;
16665;SDS011;8446;50.998;6.250;2023-04-21T00:30:18;27.60;;;17.60;;
16665;SDS011;8446;50.998;6.250;2023-04-21T00:32:45;27.30;;;17.47;;
16665;SDS011;8446;50.998;6.250;2023-04-21T00:35:12;29.00;;;17.30;;
16665;SDS011;8446;50.998;6.250;2023-04-21T00:37:39;25.38;;;16.40;;
16665;SDS011;8446;50.998;6.250;2023-04-21T00:40:06;39.80;;;17.38;;
16665;SDS011;8446;50.998;6.250;2023-04-21T00:42:34;28.15;;;17.63;;
16665;SDS011;8446;50.998;6.250;2023-04-21T00:45:01;31.53;;;17.13;;
16665;SDS011;8446;50.998;6.250;2023-04-21T00:47:29;31.33;;;18.50;;
16665;SDS011;8446;50.998;6.250;2023-04-21T00:49:56;31.03;;;18.50;;
16665;SDS011;8446;50.998;6.250;2023-04-21T00:52:22;31.27;;;18.50;;
16665;SDS011;8446;50.998;6.250;2023-04-21T00:54:50;30.85;;;19.20;;
16665;SDS011;8446;50.998;6.250;2023-04-21T00:57:17;37.08;;;19.95;;
16665;SDS011;8446;50.998;6.250;2023-04-21T00:59:45;31.50;;;18.77;;
16665;SDS011;8446;50.998;6.250;2023-04-21T01:02:13;32.33;;;19.80;;
16665;SDS011;8446;50.998;6.250;2023-04-21T01:04:41;36.90;;;21.63;;
16665;SDS011;8446;50.998;6.250;2023-04-21T01:07:09;37.22;;;21.25;;
16665;SDS011;8446;50.998;6.250;2023-04-21T01:09:36;36.77;;;21.47;;
16665;SDS011;8446;50.998;6.250;2023-04-21T01:12:03;37.97;;;21.93;;
16665;SDS011;8446;50.998;6.250;2023-04-21T01:14:31;38.08;;;22.42;;
16665;SDS011;8446;50.998;6.250;2023-04-21T01:16:57;41.03;;;22.40;;
16665;SDS011;8446;50.998;6.250;2023-04-21T01:19:25;45.58;;;22.35;;
16665;SDS011;8446;50.998;6.250;2023-04-21T01:21:58;37.60;;;21.50;;
16665;SDS011;8446;50.998;6.250;2023-04-21T01:24:34;41.80;;;23.40;;
16665;SDS011;8446;50.998;6.250;2023-04-21T01:27:01;39.97;;;22.30;;
16665;SDS011;8446;50.998;6.250;2023-04-21T01:29:30;32.30;;;19.17;;
16665;SDS011;8446;50.998;6.250;2023-04-21T01:31:58;37.93;;;21.53;;
16665;SDS011;8446;50.998;6.250;2023-04-21T01:34:29;36.17;;;22.80;;
16665;SDS011;8446;50.998;6.250;2023-04-21T01:36:55;39.60;;;23.70;;
16665;SDS011;8446;50.998;6.250;2023-04-21T01:39:24;41.53;;;23.03;;
16665;SDS011;8446;50.998;6.250;2023-04-21T01:41:50;41.57;;;23.27;;
16665;SDS011;8446;50.998;6.250;2023-04-21T01:44:19;41.53;;;22.43;;
16665;SDS011;8446;50.998;6.250;2023-04-21T01:46:46;44.83;;;23.38;;
16665;SDS011;8446;50.998;6.250;2023-04-21T01:49:13;38.80;;;22.83;;
16665;SDS011;8446;50.998;6.250;2023-04-21T01:51:40;42.70;;;24.30;;
16665;SDS011;8446;50.998;6.250;2023-04-21T01:54:08;45.57;;;24.50;;
16665;SDS011;8446;50.998;6.250;2023-04-21T01:56:35;43.47;;;23.43;;
16665;SDS011;8446;50.998;6.250;2023-04-21T01:59:02;41.43;;;23.80;;
16665;SDS011;8446;50.998;6.250;2023-04-21T02:01:29;40.30;;;24.63;;
16665;SDS011;8446;50.998;6.250;2023-04-21T02:03:55;46.03;;;24.40;;
16665;SDS011;8446;50.998;6.250;2023-04-21T02:06:22;41.67;;;23.93;;
16665;SDS011;8446;50.998;6.250;2023-04-21T02:08:49;39.43;;;23.00;;
16665;SDS011;8446;50.998;6.250;2023-04-21T02:11:17;38.27;;;22.20;;
16665;SDS011;8446;50.998;6.250;2023-04-21T02:13:44;40.30;;;23.52;;
16665;SDS011;8446;50.998;6.250;2023-04-21T02:16:11;38.90;;;23.87;;
16665;SDS011;8446;50.998;6.250;2023-04-21T02:18:38;42.92;;;23.67;;
16665;SDS011;8446;50.998;6.250;2023-04-21T02:21:05;44.67;;;22.95;;
16665;SDS011;8446;50.998;6.250;2023-04-21T02:23:32;39.25;;;22.88;;
16665;SDS011;8446;50.998;6.250;2023-04-21T02:25:59;44.27;;;23.57;;
16665;SDS011;8446;50.998;6.250;2023-04-21T02:28:27;45.47;;;24.50;;
16665;SDS011;8446;50.998;6.250;2023-04-21T02:30:53;43.57;;;24.03;;
16665;SDS011;8446;50.998;6.250;2023-04-21T02:33:20;43.60;;;23.47;;
16665;SDS011;8446;50.998;6.250;2023-04-21T02:35:47;38.78;;;23.30;;
16665;SDS011;8446;50.998;6.250;2023-04-21T02:38:14;43.57;;;24.07;;
16665;SDS011;8446;50.998;6.250;2023-04-21T02:40:41;38.47;;;24.17;;
16665;SDS011;8446;50.998;6.250;2023-04-21T02:43:07;39.57;;;23.67;;
16665;SDS011;8446;50.998;6.250;2023-04-21T02:45:36;50.27;;;24.50;;
16665;SDS011;8446;50.998;6.250;2023-04-21T02:48:03;52.03;;;26.30;;
16665;SDS011;8446;50.998;6.250;2023-04-21T02:50:31;47.33;;;25.90;;
16665;SDS011;8446;50.998;6.250;2023-04-21T02:52:57;48.67;;;26.30;;
16665;SDS011;8446;50.998;6.250;2023-04-21T02:55:24;45.80;;;26.53;;
16665;SDS011;8446;50.998;6.250;2023-04-21T02:57:51;45.80;;;24.90;;
16665;SDS011;8446;50.998;6.250;2023-04-21T03:00:18;45.97;;;24.73;;
16665;SDS011;8446;50.998;6.250;2023-04-21T03:02:46;47.07;;;25.30;;
16665;SDS011;8446;50.998;6.250;2023-04-21T03:05:13;51.07;;;24.57;;
16665;SDS011;8446;50.998;6.250;2023-04-21T03:07:40;47.43;;;24.97;;
16665;SDS011;8446;50.998;6.250;2023-04-21T03:10:07;51.90;;;25.97;;
16665;SDS011;8446;50.998;6.250;2023-04-21T03:12:33;43.60;;;23.80;;
16665;SDS011;8446;50.998;6.250;2023-04-21T03:15:00;48.03;;;23.17;;
16665;SDS011;8446;50.998;6.250;2023-04-21T03:17:27;48.93;;;23.80;;
16665;SDS011;8446;50.998;6.250;2023-04-21T03:19:55;44.90;;;25.10;;
16665;SDS011;8446;50.998;6.250;2023-04-21T03:22:22;53.10;;;25.65;;
16665;SDS011;8446;50.998;6.250;2023-04-21T03:24:48;50.30;;;26.77;;
16665;SDS011;8446;50.998;6.250;2023-04-21T03:27:15;43.60;;;23.43;;
16665;SDS011;8446;50.998;6.250;2023-04-21T03:29:42;50.10;;;25.20;;
16665;SDS011;8446;50.998;6.250;2023-04-21T03:32:09;41.80;;;24.00;;
16665;SDS011;8446;50.998;6.250;2023-04-21T03:34:36;46.07;;;24.10;;
16665;SDS011;8446;50.998;6.250;2023-04-21T03:37:04;44.75;;;24.90;;
16665;SDS011;8446;50.998;6.250;2023-04-21T03:39:33;49.27;;;25.43;;
16665;SDS011;8446;50.998;6.250;2023-04-21T03:42:00;42.65;;;24.88;;
16665;SDS011;8446;50.998;6.250;2023-04-21T03:44:28;45.10;;;23.47;;
16665;SDS011;8446;50.998;6.250;2023-04-21T03:46:55;40.83;;;21.30;;
16665;SDS011;8446;50.998;6.250;2023-04-21T03:49:22;39.20;;;22.30;;
16665;SDS011;8446;50.998;6.250;2023-04-21T03:51:49;41.57;;;24.27;;
16665;SDS011;8446;50.998;6.250;2023-04-21T03:54:17;44.20;;;22.90;;
16665;SDS011;8446;50.998;6.250;2023-04-21T03:56:44;46.35;;;23.83;;
16665;SDS011;8446;50.998;6.250;2023-04-21T03:59:11;38.70;;;22.48;;
16665;SDS011;8446;50.998;6.250;2023-04-21T04:01:38;45.58;;;24.67;;
16665;SDS011;8446;50.998;6.250;2023-04-21T04:04:06;38.33;;;23.30;;
16665;SDS011;8446;50.998;6.250;2023-04-21T04:06:33;43.90;;;22.55;;
16665;SDS011;8446;50.998;6.250;2023-04-21T04:09:00;43.83;;;24.10;;
16665;SDS011;8446;50.998;6.250;2023-04-21T04:11:30;42.85;;;20.90;;
16665;SDS011;8446;50.998;6.250;2023-04-21T04:13:57;40.10;;;22.10;;
16665;SDS011;8446;50.998;6.250;2023-04-21T04:16:23;33.95;;;19.38;;
16665;SDS011;8446;50.998;6.250;2023-04-21T04:18:52;41.28;;;22.35;;
16665;SDS011;8446;50.998;6.250;2023-04-21T04:21:19;47.85;;;25.02;;
16665;SDS011;8446;50.998;6.250;2023-04-21T04:23:48;43.55;;;22.98;;
16665;SDS011;8446;50.998;6.250;2023-04-21T04:26:15;43.08;;;23.23;;
16665;SDS011;8446;50.998;6.250;2023-04-21T04:28:44;44.53;;;24.23;;
16665;SDS011;8446;50.998;6.250;2023-04-21T04:31:12;46.58;;;23.58;;
16665;SDS011;8446;50.998;6.250;2023-04-21T04:33:39;48.38;;;24.83;;
16665;SDS011;8446;50.998;6.250;2023-04-21T04:36:07;44.65;;;23.83;;
16665;SDS011;8446;50.998;6.250;2023-04-21T04:38:34;48.10;;;24.33;;
16665;SDS011;8446;50.998;6.250;2023-04-21T04:41:01;43.15;;;24.00;;
16665;SDS011;8446;50.998;6.250;2023-04-21T04:43:28;52.40;;;24.83;;
16665;SDS011;8446;50.998;6.250;2023-04-21T04:45:58;49.03;;;26.92;;
16665;SDS011;8446;50.998;6.250;2023-04-21T04:48:25;52.75;;;26.77;;
16665;SDS011;8446;50.998;6.250;2023-04-21T04:50:52;58.33;;;23.90;;
16665;SDS011;8446;50.998;6.250;2023-04-21T04:53:19;47.05;;;24.48;;
16665;SDS011;8446;50.998;6.250;2023-04-21T04:55:46;44.85;;;22.77;;
16665;SDS011;8446;50.998;6.250;2023-04-21T04:58:12;42.08;;;23.10;;
16665;SDS011;8446;50.998;6.250;2023-04-21T05:00:39;48.08;;;24.02;;
16665;SDS011;8446;50.998;6.250;2023-04-21T05:03:08;51.97;;;25.85;;
16665;SDS011;8446;50.998;6.250;2023-04-21T05:05:34;52.30;;;26.45;;
16665;SDS011;8446;50.998;6.250;2023-04-21T05:08:01;41.97;;;22.08;;
16665;SDS011;8446;50.998;6.250;2023-04-21T05:10:28;46.17;;;23.38;;
16665;SDS011;8446;50.998;6.250;2023-04-21T05:12:55;48.60;;;24.42;;
16665;SDS011;8446;50.998;6.250;2023-04-21T05:15:21;45.47;;;23.35;;
16665;SDS011;8446;50.998;6.250;2023-04-21T05:17:48;41.97;;;21.80;;
16665;SDS011;8446;50.998;6.250;2023-04-21T05:20:16;38.70;;;19.90;;
16665;SDS011;8446;50.998;6.250;2023-04-21T05:22:43;42.83;;;21.83;;
16665;SDS011;8446;50.998;6.250;2023-04-21T05:25:10;48.78;;;22.15;;
16665;SDS011;8446;50.998;6.250;2023-04-21T05:27:39;41.67;;;20.70;;
16665;SDS011;8446;50.998;6.250;2023-04-21T05:30:06;41.22;;;19.67;;
16665;SDS011;8446;50.998;6.250;2023-04-21T05:32:33;43.88;;;20.90;;
16665;SDS011;8446;50.998;6.250;2023-04-21T05:35:00;48.08;;;23.13;;
16665;SDS011;8446;50.998;6.250;2023-04-21T05:37:29;51.88;;;21.00;;
16665;SDS011;8446;50.998;6.250;2023-04-21T05:39:56;47.42;;;23.67;;
16665;SDS011;8446;50.998;6.250;2023-04-21T05:42:22;47.33;;;21.98;;
16665;SDS011;8446;50.998;6.250;2023-04-21T05:44:49;56.17;;;24.58;;
16665;SDS011;8446;50.998;6.250;2023-04-21T05:47:16;64.25;;;26.02;;
16665;SDS011;8446;50.998;6.250;2023-04-21T05:49:43;59.70;;;26.10;;
16665;SDS011;8446;50.998;6.250;2023-04-21T05:52:14;62.67;;;25.48;;
16665;SDS011;8446;50.998;6.250;2023-04-21T05:54:42;60.47;;;26.92;;
16665;SDS011;8446;50.998;6.250;2023-04-21T05:57:09;52.55;;;24.45;;
16665;SDS011;8446;50.998;6.250;2023-04-21T05:59:36;62.45;;;27.63;;
16665;SDS011;8446;50.998;6.250;2023-04-21T06:02:03;62.13;;;28.65;;
16665;SDS011;8446;50.998;6.250;2023-04-21T06:04:30;56.72;;;26.13;;
16665;SDS011;8446;50.998;6.250;2023-04-21T06:06:56;47.25;;;23.75;;
16665;SDS011;8446;50.998;6.250;2023-04-21T06:09:23;40.85;;;22.17;;
16665;SDS011;8446;50.998;6.250;2023-04-21T06:11:51;43.38;;;23.45;;
16665;SDS011;8446;50.998;6.250;2023-04-21T06:14:18;50.30;;;25.20;;
16665;SDS011;8446;50.998;6.250;2023-04-21T06:16:46;47.63;;;22.83;;
16665;SDS011;8446;50.998;6.250;2023-04-21T06:19:13;46.15;;;24.02;;
16665;SDS011;8446;50.998;6.250;2023-04-21T06:21:40;49.70;;;24.60;;
16665;SDS011;8446;50.998;6.250;2023-04-21T06:24:07;46.63;;;23.00;;
16665;SDS011;8446;50.998;6.250;2023-04-21T06:26:34;42.27;;;21.53;;
16665;SDS011;8446;50.998;6.250;2023-04-21T06:29:02;41.13;;;21.23;;
16665;SDS011;8446;50.998;6.250;2023-04-21T06:31:28;46.20;;;22.87;;
16665;SDS011;8446;50.998;6.250;2023-04-21T06:33:55;45.60;;;23.60;;
16665;SDS011;8446;50.998;6.250;2023-04-21T06:36:22;39.13;;;22.20;;
16665;SDS011;8446;50.998;6.250;2023-04-21T06:38:49;39.37;;;21.37;;
16665;SDS011;8446;50.998;6.250;2023-04-21T06:41:16;39.90;;;21.00;;
16665;SDS011;8446;50.998;6.250;2023-04-21T06:43:43;35.03;;;20.33;;
16665;SDS011;8446;50.998;6.250;2023-04-21T06:46:11;37.47;;;20.77;;
16665;SDS011;8446;50.998;6.250;2023-04-21T06:48:38;30.37;;;18.57;;
16665;SDS011;8446;50.998;6.250;2023-04-21T06:51:05;29.47;;;16.90;;
16665;SDS011;8446;50.998;6.250;2023-04-21T06:53:32;27.63;;;16.67;;
16665;SDS011;8446;50.998;6.250;2023-04-21T06:55:58;31.70;;;17.97;;
16665;SDS011;8446;50.998;6.250;2023-04-21T06:58:25;33.03;;;17.67;;
16665;SDS011;8446;50.998;6.250;2023-04-21T07:00:52;29.20;;;16.90;;
16665;SDS011;8446;50.998;6.250;2023-04-21T07:03:20;27.97;;;16.00;;
16665;SDS011;8446;50.998;6.250;2023-04-21T07:05:47;23.40;;;13.87;;
16665;SDS011;8446;50.998;6.250;2023-04-21T07:08:14;22.40;;;14.77;;
16665;SDS011;8446;50.998;6.250;2023-04-21T07:10:40;23.60;;;14.37;;
16665;SDS011;8446;50.998;6.250;2023-04-21T07:13:07;24.27;;;14.93;;
16665;SDS011;8446;50.998;6.250;2023-04-21T07:15:34;23.00;;;13.67;;
16665;SDS011;8446;50.998;6.250;2023-04-21T07:18:01;22.43;;;13.23;;
16665;SDS011;8446;50.998;6.250;2023-04-21T07:20:29;26.87;;;15.63;;
16665;SDS011;8446;50.998;6.250;2023-04-21T07:22:56;23.27;;;13.87;;
16665;SDS011;8446;50.998;6.250;2023-04-21T07:25:23;26.27;;;15.40;;
16665;SDS011;8446;50.998;6.250;2023-04-21T07:27:50;23.90;;;14.23;;
16665;SDS011;8446;50.998;6.250;2023-04-21T07:30:16;21.53;;;14.40;;
16665;SDS011;8446;50.998;6.250;2023-04-21T07:32:43;25.30;;;14.93;;
16665;SDS011;8446;50.998;6.250;2023-04-21T07:35:10;21.53;;;14.07;;
16665;SDS011;8446;50.998;6.250;2023-04-21T07:37:38;22.57;;;14.80;;
16665;SDS011;8446;50.998;6.250;2023-04-21T07:40:06;22.23;;;14.20;;
16665;SDS011;8446;50.998;6.250;2023-04-21T07:42:33;24.97;;;14.10;;
16665;SDS011;8446;50.998;6.250;2023-04-21T07:45:00;19.30;;;12.63;;
16665;SDS011;8446;50.998;6.250;2023-04-21T07:47:27;21.13;;;12.73;;
16665;SDS011;8446;50.998;6.250;2023-04-21T07:49:54;20.10;;;12.40;;
16665;SDS011;8446;50.998;6.250;2023-04-21T07:52:21;18.17;;;12.90;;
16665;SDS011;8446;50.998;6.250;2023-04-21T07:54:49;21.60;;;12.27;;
16665;SDS011;8446;50.998;6.250;2023-04-21T07:57:16;19.27;;;12.43;;
16665;SDS011;8446;50.998;6.250;2023-04-21T07:59:43;16.20;;;11.87;;
16665;SDS011;8446;50.998;6.250;2023-04-21T08:02:10;18.40;;;12.30;;
16665;SDS011;8446;50.998;6.250;2023-04-21T08:04:37;19.80;;;13.47;;
16665;SDS011;8446;50.998;6.250;2023-04-21T08:07:03;18.73;;;13.40;;
16665;SDS011;8446;50.998;6.250;2023-04-21T08:09:30;18.90;;;12.03;;
16665;SDS011;8446;50.998;6.250;2023-04-21T08:11:58;18.43;;;11.97;;
16665;SDS011;8446;50.998;6.250;2023-04-21T08:14:26;16.90;;;12.17;;
16665;SDS011;8446;50.998;6.250;2023-04-21T08:16:53;18.53;;;11.37;;
16665;SDS011;8446;50.998;6.250;2023-04-21T08:19:19;16.63;;;11.10;;
16665;SDS011;8446;50.998;6.250;2023-04-21T08:21:46;19.17;;;11.87;;
16665;SDS011;8446;50.998;6.250;2023-04-21T08:24:13;18.50;;;10.77;;
16665;SDS011;8446;50.998;6.250;2023-04-21T08:26:40;17.23;;;10.20;;
16665;SDS011;8446;50.998;6.250;2023-04-21T08:29:08;18.30;;;11.03;;
16665;SDS011;8446;50.998;6.250;2023-04-21T08:31:35;14.47;;;10.10;;
16665;SDS011;8446;50.998;6.250;2023-04-21T08:34:01;17.90;;;11.07;;
16665;SDS011;8446;50.998;6.250;2023-04-21T08:36:28;16.63;;;11.50;;
16665;SDS011;8446;50.998;6.250;2023-04-21T08:38:55;17.77;;;11.17;;
16665;SDS011;8446;50.998;6.250;2023-04-21T08:41:23;14.33;;;9.20;;
16665;SDS011;8446;50.998;6.250;2023-04-21T08:43:50;16.63;;;10.40;;
16665;SDS011;8446;50.998;6.250;2023-04-21T08:46:18;17.20;;;10.53;;
16665;SDS011;8446;50.998;6.250;2023-04-21T08:48:46;17.07;;;11.10;;
16665;SDS011;8446;50.998;6.250;2023-04-21T08:51:13;14.60;;;9.90;;
16665;SDS011;8446;50.998;6.250;2023-04-21T08:53:46;15.37;;;10.70;;
16665;SDS011;8446;50.998;6.250;2023-04-21T08:56:12;13.20;;;10.13;;
16665;SDS011;8446;50.998;6.250;2023-04-21T08:58:39;12.23;;;8.53;;
16665;SDS011;8446;50.998;6.250;2023-04-21T09:01:06;15.03;;;9.93;;
16665;SDS011;8446;50.998;6.250;2023-04-21T09:03:34;15.57;;;9.77;;
16665;SDS011;8446;50.998;6.250;2023-04-21T09:06:02;11.90;;;8.50;;
16665;SDS011;8446;50.998;6.250;2023-04-21T09:08:30;14.10;;;8.60;;
16665;SDS011;8446;50.998;6.250;2023-04-21T09:10:58;12.10;;;8.43;;
16665;SDS011;8446;50.998;6.250;2023-04-21T09:13:29;14.40;;;9.83;;
16665;SDS011;8446;50.998;6.250;2023-04-21T09:15:59;17.20;;;9.77;;
16665;SDS011;8446;50.998;6.250;2023-04-21T09:18:28;15.07;;;9.90;;
16665;SDS011;8446;50.998;6.250;2023-04-21T09:21:07;15.13;;;10.00;;
16665;SDS011;8446;50.998;6.250;2023-04-21T09:23:39;11.40;;;8.13;;
16665;SDS011;8446;50.998;6.250;2023-04-21T09:26:07;14.17;;;9.00;;
16665;SDS011;8446;50.998;6.250;2023-04-21T09:28:34;16.83;;;8.90;;
16665;SDS011;8446;50.998;6.250;2023-04-21T09:31:01;16.57;;;10.10;;
16665;SDS011;8446;50.998;6.250;2023-04-21T09:33:28;15.30;;;10.53;;
16665;SDS011;8446;50.998;6.250;2023-04-21T09:35:59;10.73;;;8.10;;
16665;SDS011;8446;50.998;6.250;2023-04-21T09:38:28;19.03;;;10.30;;
16665;SDS011;8446;50.998;6.250;2023-04-21T09:40:55;16.53;;;9.87;;
16665;SDS011;8446;50.998;6.250;2023-04-21T09:43:23;15.30;;;9.73;;
16665;SDS011;8446;50.998;6.250;2023-04-21T09:45:50;16.20;;;10.50;;
16665;SDS011;8446;50.998;6.250;2023-04-21T09:48:17;14.77;;;9.37;;
16665;SDS011;8446;50.998;6.250;2023-04-21T09:50:45;15.53;;;9.90;;
16665;SDS011;8446;50.998;6.250;2023-04-21T09:53:14;15.17;;;10.13;;
16665;SDS011;8446;50.998;6.250;2023-04-21T09:55:43;15.90;;;10.70;;
16665;SDS011;8446;50.998;6.250;2023-04-21T09:58:12;16.27;;;10.87;;
16665;SDS011;8446;50.998;6.250;2023-04-21T10:00:44;13.87;;;8.80;;
16665;SDS011;8446;50.998;6.250;2023-04-21T10:03:12;11.10;;;8.47;;
16665;SDS011;8446;50.998;6.250;2023-04-21T10:05:42;12.20;;;9.00;;
16665;SDS011;8446;50.998;6.250;2023-04-21T10:08:09;13.53;;;9.13;;
16665;SDS011;8446;50.998;6.250;2023-04-21T10:10:36;12.13;;;7.90;;
16665;SDS011;8446;50.998;6.250;2023-04-21T10:13:06;10.23;;;7.20;;
16665;SDS011;8446;50.998;6.250;2023-04-21T10:15:39;11.33;;;7.97;;
16665;SDS011;8446;50.998;6.250;2023-04-21T10:18:14;12.57;;;7.40;;
16665;SDS011;8446;50.998;6.250;2023-04-21T10:23:28;11.70;;;7.67;;
16665;SDS011;8446;50.998;6.250;2023-04-21T10:26:07;12.63;;;8.37;;
16665;SDS011;8446;50.998;6.250;2023-04-21T10:28:41;13.40;;;7.30;;
16665;SDS011;8446;50.998;6.250;2023-04-21T10:31:17;9.80;;;7.20;;
16665;SDS011;8446;50.998;6.250;2023-04-21T10:37:06;7.57;;;6.07;;
16665;SDS011;8446;50.998;6.250;2023-04-21T10:39:43;10.10;;;6.00;;
16665;SDS011;8446;50.998;6.250;2023-04-21T10:42:19;7.33;;;6.07;;
16665;SDS011;8446;50.998;6.250;2023-04-21T10:44:59;7.60;;;5.70;;
16665;SDS011;8446;50.998;6.250;2023-04-21T10:47:28;7.27;;;5.43;;
16665;SDS011;8446;50.998;6.250;2023-04-21T10:50:09;8.30;;;5.27;;
16665;SDS011;8446;50.998;6.250;2023-04-21T10:52:37;6.90;;;5.20;;
16665;SDS011;8446;50.998;6.250;2023-04-21T10:55:05;9.73;;;6.10;;
16665;SDS011;8446;50.998;6.250;2023-04-21T10:57:36;8.93;;;5.40;;
16665;SDS011;8446;50.998;6.250;2023-04-21T11:00:08;9.27;;;5.57;;
16665;SDS011;8446;50.998;6.250;2023-04-21T11:02:35;8.07;;;5.10;;
16665;SDS011;8446;50.998;6.250;2023-04-21T11:05:03;7.60;;;5.80;;
16665;SDS011;8446;50.998;6.250;2023-04-21T11:07:31;9.90;;;5.50;;
16665;SDS011;8446;50.998;6.250;2023-04-21T11:09:58;10.23;;;7.10;;
16665;SDS011;8446;50.998;6.250;2023-04-21T11:12:26;12.60;;;6.63;;
16665;SDS011;8446;50.998;6.250;2023-04-21T11:14:54;9.07;;;6.33;;
16665;SDS011;8446;50.998;6.250;2023-04-21T11:17:23;6.87;;;5.50;;
16665;SDS011;8446;50.998;6.250;2023-04-21T11:19:51;6.83;;;5.30;;
16665;SDS011;8446;50.998;6.250;2023-04-21T11:22:18;7.23;;;5.50;;
16665;SDS011;8446;50.998;6.250;2023-04-21T11:24:47;8.77;;;6.30;;
16665;SDS011;8446;50.998;6.250;2023-04-21T11:27:16;8.10;;;5.87;;
16665;SDS011;8446;50.998;6.250;2023-04-21T11:29:43;8.50;;;5.90;;
16665;SDS011;8446;50.998;6.250;2023-04-21T11:32:11;6.60;;;5.27;;
16665;SDS011;8446;50.998;6.250;2023-04-21T11:34:40;11.20;;;5.80;;
16665;SDS011;8446;50.998;6.250;2023-04-21T11:37:08;6.30;;;5.47;;
16665;SDS011;8446;50.998;6.250;2023-04-21T11:39:38;8.43;;;5.47;;
16665;SDS011;8446;50.998;6.250;2023-04-21T11:42:06;10.03;;;5.30;;
16665;SDS011;8446;50.998;6.250;2023-04-21T11:44:34;8.63;;;6.80;;
16665;SDS011;8446;50.998;6.250;2023-04-21T11:47:11;7.50;;;6.10;;
16665;SDS011;8446;50.998;6.250;2023-04-21T11:49:44;8.47;;;5.80;;
16665;SDS011;8446;50.998;6.250;2023-04-21T11:52:18;8.10;;;6.20;;
16665;SDS011;8446;50.998;6.250;2023-04-21T11:54:46;8.80;;;6.70;;
16665;SDS011;8446;50.998;6.250;2023-04-21T11:57:16;8.40;;;6.63;;
16665;SDS011;8446;50.998;6.250;2023-04-21T11:59:44;7.70;;;5.90;;
16665;SDS011;8446;50.998;6.250;2023-04-21T12:02:11;10.37;;;6.43;;
16665;SDS011;8446;50.998;6.250;2023-04-21T12:04:56;12.90;;;8.83;;
16665;SDS011;8446;50.998;6.250;2023-04-21T12:07:28;14.20;;;9.40;;
16665;SDS011;8446;50.998;6.250;2023-04-21T12:09:56;13.23;;;9.07;;
16665;SDS011;8446;50.998;6.250;2023-04-21T12:12:23;13.40;;;8.83;;
16665;SDS011;8446;50.998;6.250;2023-04-21T12:14:50;10.33;;;7.80;;
16665;SDS011;8446;50.998;6.250;2023-04-21T12:17:17;12.40;;;8.90;;
16665;SDS011;8446;50.998;6.250;2023-04-21T12:19:44;12.07;;;8.10;;
16665;SDS011;8446;50.998;6.250;2023-04-21T12:22:13;13.90;;;10.23;;
16665;SDS011;8446;50.998;6.250;2023-04-21T12:24:41;11.93;;;9.40;;
16665;SDS011;8446;50.998;6.250;2023-04-21T12:27:08;14.70;;;9.20;;
16665;SDS011;8446;50.998;6.250;2023-04-21T12:29:36;12.80;;;9.00;;
16665;SDS011;8446;50.998;6.250;2023-04-21T12:32:03;10.90;;;7.83;;
16665;SDS011;8446;50.998;6.250;2023-04-21T12:34:30;13.67;;;8.10;;
16665;SDS011;8446;50.998;6.250;2023-04-21T12:36:56;11.60;;;7.77;;
16665;SDS011;8446;50.998;6.250;2023-04-21T12:39:25;10.30;;;7.63;;
16665;SDS011;8446;50.998;6.250;2023-04-21T12:41:51;10.90;;;7.77;;
16665;SDS011;8446;50.998;6.250;2023-04-21T12:44:18;11.63;;;7.40;;
16665;SDS011;8446;50.998;6.250;2023-04-21T12:46:45;9.43;;;7.03;;
16665;SDS011;8446;50.998;6.250;2023-04-21T12:49:13;10.53;;;7.53;;
16665;SDS011;8446;50.998;6.250;2023-04-21T12:51:41;8.47;;;7.27;;
16665;SDS011;8446;50.998;6.250;2023-04-21T12:54:08;9.27;;;7.43;;
16665;SDS011;8446;50.998;6.250;2023-04-21T12:56:36;7.10;;;6.00;;
16665;SDS011;8446;50.998;6.250;2023-04-21T12:59:04;10.90;;;7.43;;
16665;SDS011;8446;50.998;6.250;2023-04-21T13:01:31;10.70;;;7.37;;
16665;SDS011;8446;50.998;6.250;2023-04-21T13:03:58;11.13;;;6.67;;
16665;SDS011;8446;50.998;6.250;2023-04-21T13:06:25;15.47;;;7.13;;
16665;SDS011;8446;50.998;6.250;2023-04-21T13:08:52;11.00;;;6.80;;
16665;SDS011;8446;50.998;6.250;2023-04-21T13:11:19;9.30;;;5.20;;
16665;SDS011;8446;50.998;6.250;2023-04-21T13:13:47;6.40;;;5.07;;
16665;SDS011;8446;50.998;6.250;2023-04-21T13:16:14;7.30;;;5.97;;
16665;SDS011;8446;50.998;6.250;2023-04-21T13:18:41;8.73;;;6.00;;
16665;SDS011;8446;50.998;6.250;2023-04-21T13:21:09;8.40;;;5.20;;
16665;SDS011;8446;50.998;6.250;2023-04-21T13:23:36;6.77;;;5.60;;
16665;SDS011;8446;50.998;6.250;2023-04-21T13:26:03;9.70;;;6.07;;
16665;SDS011;8446;50.998;6.250;2023-04-21T13:28:30;9.63;;;4.67;;
16665;SDS011;8446;50.998;6.250;2023-04-21T13:30:59;5.77;;;4.90;;
16665;SDS011;8446;50.998;6.250;2023-04-21T13:33:25;10.80;;;6.07;;
16665;SDS011;8446;50.998;6.250;2023-04-21T13:35:52;6.47;;;5.47;;
16665;SDS011;8446;50.998;6.250;2023-04-21T13:38:19;8.40;;;5.97;;
16665;SDS011;8446;50.998;6.250;2023-04-21T13:40:46;7.97;;;5.20;;
16665;SDS011;8446;50.998;6.250;2023-04-21T13:43:13;9.40;;;7.03;;
16665;SDS011;8446;50.998;6.250;2023-04-21T13:45:40;14.57;;;6.07;;
16665;SDS011;8446;50.998;6.250;2023-04-21T13:48:08;8.63;;;5.80;;
16665;SDS011;8446;50.998;6.250;2023-04-21T13:50:35;7.10;;;5.37;;
16665;SDS011;8446;50.998;6.250;2023-04-21T13:53:02;8.30;;;4.43;;
16665;SDS011;8446;50.998;6.250;2023-04-21T13:55:30;6.40;;;5.20;;
16665;SDS011;8446;50.998;6.250;2023-04-21T13:57:57;5.53;;;5.00;;
16665;SDS011;8446;50.998;6.250;2023-04-21T14:00:24;7.40;;;4.23;;
16665;SDS011;8446;50.998;6.250;2023-04-21T14:02:51;4.90;;;3.83;;
16665;SDS011;8446;50.998;6.250;2023-04-21T14:05:19;5.33;;;3.97;;
16665;SDS011;8446;50.998;6.250;2023-04-21T14:07:46;4.50;;;3.97;;
16665;SDS011;8446;50.998;6.250;2023-04-21T14:10:13;3.73;;;3.07;;
16665;SDS011;8446;50.998;6.250;2023-04-21T14:12:40;6.00;;;3.80;;
16665;SDS011;8446;50.998;6.250;2023-04-21T14:15:09;10.23;;;4.07;;
16665;SDS011;8446;50.998;6.250;2023-04-21T14:17:37;4.70;;;3.50;;
16665;SDS011;8446;50.998;6.250;2023-04-21T14:20:04;4.50;;;3.50;;
16665;SDS011;8446;50.998;6.250;2023-04-21T14:22:34;4.60;;;3.40;;
16665;SDS011;8446;50.998;6.250;2023-04-21T14:25:01;4.70;;;2.90;;
16665;SDS011;8446;50.998;6.250;2023-04-21T14:27:28;6.53;;;3.30;;
16665;SDS011;8446;50.998;6.250;2023-04-21T14:29:56;2.87;;;2.50;;
16665;SDS011;8446;50.998;6.250;2023-04-21T14:32:23;5.30;;;3.03;;
16665;SDS011;8446;50.998;6.250;2023-04-21T14:34:50;3.73;;;2.80;;
16665;SDS011;8446;50.998;6.250;2023-04-21T14:37:18;6.53;;;3.27;;
16665;SDS011;8446;50.998;6.250;2023-04-21T14:39:46;3.70;;;2.90;;
16665;SDS011;8446;50.998;6.250;2023-04-21T14:42:13;4.03;;;3.40;;
16665;SDS011;8446;50.998;6.250;2023-04-21T14:44:40;5.53;;;3.10;;
16665;SDS011;8446;50.998;6.250;2023-04-21T14:47:07;4.60;;;3.07;;
16665;SDS011;8446;50.998;6.250;2023-04-21T14:49:34;3.40;;;3.03;;
16665;SDS011;8446;50.998;6.250;2023-04-21T14:52:01;4.30;;;3.00;;